Time,TemperatureF,DewpointF,PressureIn,WindDirection,WindDirectionDegrees,WindSpeedMPH,WindSpeedGustMPH,Humidity,HourlyPrecipIn,Conditions,Clouds,dailyrainin,SoftwareType,DateUTC
2013-05-04 00:02:00,47.3,44.8,30.05,NNW,342,0.0,0.0,91,0.00,,,0.00,meteohub,2013-05-04 05:02:00,
2013-05-04 00:07:00,47.1,44.6,30.05,NNW,342,0.0,0.0,91,0.00,,,0.00,meteohub,2013-05-04 05:07:00,
2013-05-04 00:12:00,46.9,44.8,30.05,NNW,342,0.0,0.0,92,0.00,,,0.00,meteohub,2013-05-04 05:12:00,
2013-05-04 00:17:00,46.9,44.8,30.05,NNW,342,0.0,0.0,92,0.00,,,0.00,meteohub,2013-05-04 05:17:00,
2013-05-04 00:22:00,46.8,44.6,30.05,NNW,342,0.0,0.0,92,0.00,,,0.00,meteohub,2013-05-04 05:22:00,
2013-05-04 00:27:00,46.6,44.4,30.05,NNW,342,0.0,0.0,92,0.00,,,0.00,meteohub,2013-05-04 05:27:00,
2013-05-04 00:32:00,46.4,44.2,30.05,NNW,342,0.0,0.0,92,0.00,,,0.00,meteohub,2013-05-04 05:32:00,
2013-05-04 00:37:00,46.4,44.4,30.04,NNW,342,0.0,0.0,93,0.00,,,0.00,meteohub,2013-05-04 05:37:00,
2013-05-04 00:42:00,46.8,45.1,30.05,NNW,342,0.0,0.0,94,0.00,,,0.00,meteohub,2013-05-04 05:42:00,
2013-05-04 00:46:00,46.8,45.1,30.05,NNW,342,0.0,0.0,94,0.00,,,0.00,meteohub,2013-05-04 05:46:00,
2013-05-04 00:51:00,46.8,45.1,30.04,NNW,342,0.0,0.0,94,0.00,,,0.00,meteohub,2013-05-04 05:51:00,
2013-05-04 00:56:00,46.8,45.1,30.04,NNW,342,0.0,1.0,94,0.00,,,0.00,meteohub,2013-05-04 05:56:00,
2013-05-04 01:01:00,46.6,45.0,30.04,NNW,342,0.0,1.0,94,0.00,,,0.00,meteohub,2013-05-04 06:01:00,
2013-05-04 01:06:00,46.6,45.0,30.04,NNW,342,0.0,1.0,94,0.00,,,0.00,meteohub,2013-05-04 06:06:00,
2013-05-04 01:11:00,46.4,45.0,30.04,NNW,342,0.0,1.0,95,0.00,,,0.00,meteohub,2013-05-04 06:11:00,
2013-05-04 01:16:00,46.2,44.8,30.04,NNW,342,0.0,1.0,95,0.00,,,0.00,meteohub,2013-05-04 06:16:00,
2013-05-04 01:21:00,46.0,44.6,30.04,NNW,342,0.0,1.0,95,0.00,,,0.00,meteohub,2013-05-04 06:21:00,
2013-05-04 01:26:00,45.9,44.4,30.04,NNW,342,0.0,1.0,95,0.00,,,0.00,meteohub,2013-05-04 06:26:00,
2013-05-04 01:31:00,45.9,44.4,30.04,NNW,342,0.0,0.0,95,0.00,,,0.00,meteohub,2013-05-04 06:31:00,
2013-05-04 01:36:00,45.7,44.4,30.04,NNW,342,0.0,0.0,95,0.00,,,0.00,meteohub,2013-05-04 06:36:00,
2013-05-04 01:41:00,45.7,44.4,30.04,NNW,342,0.0,0.0,95,0.00,,,0.00,meteohub,2013-05-04 06:41:00,
2013-05-04 01:46:00,45.7,44.4,30.03,NNW,342,0.0,0.0,95,0.00,,,0.00,meteohub,2013-05-04 06:46:00,
2013-05-04 01:51:00,45.3,44.1,30.03,NNW,342,0.0,0.0,95,0.00,,,0.00,meteohub,2013-05-04 06:51:00,
2013-05-04 01:56:00,45.3,44.1,30.03,NNW,342,0.0,0.0,95,0.00,,,0.00,meteohub,2013-05-04 06:56:00,
2013-05-04 02:02:00,45.1,43.9,30.02,NNW,342,0.0,0.0,95,0.00,,,0.00,meteohub,2013-05-04 07:02:00,
2013-05-04 02:07:00,45.1,43.9,30.02,NNW,342,0.0,0.0,95,0.00,,,0.00,meteohub,2013-05-04 07:07:00,
2013-05-04 02:12:00,45.1,43.9,30.02,NNW,342,0.0,0.0,95,0.00,,,0.00,meteohub,2013-05-04 07:12:00,
2013-05-04 02:17:00,45.1,43.9,30.02,NNW,342,0.0,0.0,95,0.00,,,0.00,meteohub,2013-05-04 07:17:00,
2013-05-04 02:21:00,45.1,43.9,30.02,NNW,342,0.0,0.0,95,0.00,,,0.00,meteohub,2013-05-04 07:21:00,
2013-05-04 02:27:00,45.1,43.9,30.02,NNW,342,0.0,0.0,95,0.00,,,0.00,meteohub,2013-05-04 07:27:00,
2013-05-04 02:32:00,45.1,43.9,30.01,NNW,342,0.0,0.0,95,0.00,,,0.00,meteohub,2013-05-04 07:32:00,
2013-05-04 02:37:00,45.1,43.9,30.01,NNW,342,0.0,0.0,95,0.00,,,0.00,meteohub,2013-05-04 07:37:00,
2013-05-04 02:42:00,45.0,43.7,30.01,NNW,342,0.0,0.0,95,0.00,,,0.00,meteohub,2013-05-04 07:42:00,
2013-05-04 02:47:00,45.0,43.7,30.01,NNW,342,0.0,0.0,95,0.00,,,0.00,meteohub,2013-05-04 07:47:00,
2013-05-04 02:52:00,44.8,43.5,30.01,NNW,342,0.0,0.0,95,0.00,,,0.00,meteohub,2013-05-04 07:52:00,
2013-05-04 02:57:00,44.8,43.5,30.01,NNW,342,0.0,0.0,95,0.00,,,0.00,meteohub,2013-05-04 07:57:00,
2013-05-04 03:02:00,44.6,43.3,30.00,NNW,342,0.0,0.0,95,0.00,,,0.00,meteohub,2013-05-04 08:02:00,
2013-05-04 03:07:00,44.6,43.3,30.00,NNW,342,0.0,0.0,95,0.00,,,0.00,meteohub,2013-05-04 08:07:00,
2013-05-04 03:12:00,44.6,43.3,30.01,NNW,342,0.0,0.0,95,0.00,,,0.00,meteohub,2013-05-04 08:12:00,
2013-05-04 03:17:00,44.8,43.7,30.01,NNW,342,0.0,0.0,96,0.00,,,0.00,meteohub,2013-05-04 08:17:00,
2013-05-04 03:22:00,44.8,43.7,30.01,NNW,342,0.0,0.0,96,0.00,,,0.00,meteohub,2013-05-04 08:22:00,
2013-05-04 03:27:00,44.8,43.7,30.01,NNW,342,0.0,0.0,96,0.00,,,0.00,meteohub,2013-05-04 08:27:00,
2013-05-04 03:32:00,44.8,43.7,30.01,NNW,342,0.0,0.0,96,0.00,,,0.00,meteohub,2013-05-04 08:32:00,
2013-05-04 03:37:00,44.6,43.5,30.01,NNW,342,0.0,0.0,96,0.00,,,0.00,meteohub,2013-05-04 08:37:00,
2013-05-04 03:41:00,44.4,43.3,30.01,NNW,342,0.0,0.0,96,0.00,,,0.00,meteohub,2013-05-04 08:41:00,
2013-05-04 03:47:00,44.2,43.2,30.01,NNW,342,0.0,0.0,96,0.00,,,0.00,meteohub,2013-05-04 08:47:00,
2013-05-04 03:52:00,44.2,43.2,30.01,NNW,342,0.0,0.0,96,0.00,,,0.00,meteohub,2013-05-04 08:52:00,
2013-05-04 03:57:00,44.1,43.0,30.01,NNW,342,0.0,0.0,96,0.00,,,0.00,meteohub,2013-05-04 08:57:00,
2013-05-04 04:02:00,44.1,43.0,30.01,NNW,342,0.0,0.0,96,0.00,,,0.00,meteohub,2013-05-04 09:02:00,
2013-05-04 04:07:00,44.1,43.0,30.02,NNW,342,0.0,0.0,96,0.00,,,0.00,meteohub,2013-05-04 09:07:00,
2013-05-04 04:12:00,44.2,43.2,30.02,NNW,342,0.0,0.0,96,0.00,,,0.00,meteohub,2013-05-04 09:12:00,
2013-05-04 04:17:00,44.1,43.0,30.02,NNW,342,0.0,0.0,96,0.00,,,0.00,meteohub,2013-05-04 09:17:00,
2013-05-04 04:22:00,44.6,43.5,30.02,NNW,342,1.0,0.0,96,0.00,,,0.00,meteohub,2013-05-04 09:22:00,
2013-05-04 04:27:00,45.1,44.1,30.02,NNW,342,0.0,3.0,96,0.00,,,0.00,meteohub,2013-05-04 09:27:00,
2013-05-04 04:32:00,45.3,44.2,30.02,NNW,342,0.0,3.0,96,0.00,,,0.00,meteohub,2013-05-04 09:32:00,
2013-05-04 04:37:00,45.3,44.2,30.01,NNW,342,0.0,3.0,96,0.00,,,0.00,meteohub,2013-05-04 09:37:00,
2013-05-04 04:42:00,45.3,44.2,30.01,NNW,342,1.0,2.0,96,0.00,,,0.00,meteohub,2013-05-04 09:42:00,
2013-05-04 04:47:00,45.3,44.2,30.01,NNW,342,0.0,2.0,96,0.00,,,0.00,meteohub,2013-05-04 09:47:00,
2013-05-04 04:52:00,45.3,44.2,30.01,NNW,342,0.0,2.0,96,0.00,,,0.00,meteohub,2013-05-04 09:52:00,
2013-05-04 04:57:00,45.1,44.1,30.01,NNW,342,0.0,2.0,96,0.00,,,0.00,meteohub,2013-05-04 09:57:00,
2013-05-04 05:02:00,45.1,44.1,30.01,NNW,342,0.0,2.0,96,0.00,,,0.00,meteohub,2013-05-04 10:02:00,
2013-05-04 05:07:00,45.0,43.9,30.01,NNW,342,0.0,2.0,96,0.00,,,0.00,meteohub,2013-05-04 10:07:00,
2013-05-04 05:12:00,44.8,43.7,30.01,NNW,342,0.0,0.0,96,0.00,,,0.00,meteohub,2013-05-04 10:12:00,
2013-05-04 05:17:00,44.6,43.5,30.01,NNW,342,0.0,0.0,96,0.00,,,0.00,meteohub,2013-05-04 10:17:00,
2013-05-04 05:22:00,44.6,43.5,30.01,NNW,342,0.0,0.0,96,0.00,,,0.00,meteohub,2013-05-04 10:22:00,
2013-05-04 05:27:00,44.8,43.7,30.01,NNW,342,0.0,0.0,96,0.00,,,0.00,meteohub,2013-05-04 10:27:00,
2013-05-04 05:32:00,44.8,43.7,30.02,NNW,342,0.0,0.0,96,0.00,,,0.00,meteohub,2013-05-04 10:32:00,
2013-05-04 05:37:00,44.8,43.7,30.02,NNW,342,0.0,0.0,96,0.00,,,0.00,meteohub,2013-05-04 10:37:00,
2013-05-04 05:42:00,44.8,43.7,30.02,NNW,342,0.0,0.0,96,0.00,,,0.00,meteohub,2013-05-04 10:42:00,
2013-05-04 05:47:00,44.8,43.7,30.02,NNW,342,0.0,0.0,96,0.00,,,0.00,meteohub,2013-05-04 10:47:00,
2013-05-04 05:52:00,44.8,43.7,30.02,NNW,342,0.0,0.0,96,0.00,,,0.00,meteohub,2013-05-04 10:52:00,
2013-05-04 05:57:00,44.6,43.5,30.02,NNW,342,0.0,0.0,96,0.00,,,0.00,meteohub,2013-05-04 10:57:00,
2013-05-04 06:02:00,44.4,43.3,30.02,NNW,342,0.0,0.0,96,0.00,,,0.00,meteohub,2013-05-04 11:02:00,
2013-05-04 06:07:00,44.4,43.3,30.02,NNW,342,0.0,0.0,96,0.00,,,0.00,meteohub,2013-05-04 11:07:00,
2013-05-04 06:12:00,44.6,43.5,30.02,NNW,342,0.0,0.0,96,0.00,,,0.00,meteohub,2013-05-04 11:12:00,
2013-05-04 06:17:00,44.8,43.7,30.02,NNW,342,0.0,1.0,96,0.00,,,0.00,meteohub,2013-05-04 11:17:00,
2013-05-04 06:22:00,45.0,43.9,30.02,NNW,342,3.0,3.0,96,0.00,,,0.00,meteohub,2013-05-04 11:22:00,
2013-05-04 06:27:00,45.0,43.9,30.02,NNW,342,0.0,3.0,96,0.00,,,0.00,meteohub,2013-05-04 11:27:00,
2013-05-04 06:32:00,45.1,44.1,30.02,NNW,342,1.0,3.0,96,0.00,,,0.00,meteohub,2013-05-04 11:32:00,
2013-05-04 06:37:00,45.1,44.1,30.03,NNW,342,0.0,3.0,96,0.00,,,0.00,meteohub,2013-05-04 11:37:00,
2013-05-04 06:42:00,45.3,44.2,30.03,NNW,342,0.0,2.0,96,0.00,,,0.00,meteohub,2013-05-04 11:42:00,
2013-05-04 06:47:00,45.9,44.8,30.03,NNW,342,0.0,2.0,96,0.00,,,0.00,meteohub,2013-05-04 11:47:00,
2013-05-04 06:52:00,46.0,45.0,30.03,NNW,342,0.0,2.0,96,0.00,,,0.00,meteohub,2013-05-04 11:52:00,
2013-05-04 06:57:00,46.6,45.5,30.03,NNW,342,0.0,2.0,96,0.00,,,0.00,meteohub,2013-05-04 11:57:00,
2013-05-04 07:02:00,46.8,45.3,30.03,NNW,342,0.0,1.0,95,0.00,,,0.00,meteohub,2013-05-04 12:02:00,
2013-05-04 07:07:00,46.9,45.5,30.03,NNW,342,0.0,1.0,95,0.00,,,0.00,meteohub,2013-05-04 12:07:00,
2013-05-04 07:12:00,47.3,45.9,30.04,NNW,342,0.0,1.0,95,0.00,,,0.00,meteohub,2013-05-04 12:12:00,
2013-05-04 07:17:00,47.7,46.0,30.04,NNW,342,0.0,2.0,94,0.00,,,0.00,meteohub,2013-05-04 12:17:00,
2013-05-04 07:22:00,47.8,46.2,30.03,NNW,342,1.0,2.0,94,0.00,,,0.00,meteohub,2013-05-04 12:22:00,
2013-05-04 07:27:00,48.2,46.6,30.04,NNW,342,0.0,3.0,94,0.00,,,0.00,meteohub,2013-05-04 12:27:00,
2013-05-04 07:33:00,48.6,46.6,30.03,NNW,342,0.0,3.0,93,0.00,,,0.00,meteohub,2013-05-04 12:33:00,
2013-05-04 07:38:00,49.1,46.9,30.03,NNW,342,2.0,3.0,92,0.00,,,0.00,meteohub,2013-05-04 12:38:00,
2013-05-04 07:43:00,49.5,46.9,30.03,NNW,342,0.0,3.0,91,0.00,,,0.00,meteohub,2013-05-04 12:43:00,
2013-05-04 07:48:00,50.0,47.5,30.03,NNW,342,0.0,3.0,91,0.00,,,0.00,meteohub,2013-05-04 12:48:00,
2013-05-04 07:53:00,50.4,47.5,30.03,NNW,342,3.0,3.0,90,0.00,,,0.00,meteohub,2013-05-04 12:53:00,
2013-05-04 07:58:00,50.4,47.3,30.03,NNW,342,2.0,4.0,89,0.00,,,0.00,meteohub,2013-05-04 12:58:00,
2013-05-04 08:03:00,50.7,47.3,30.03,NNW,342,3.0,4.0,88,0.00,,,0.00,meteohub,2013-05-04 13:03:00,
2013-05-04 08:04:00,50.7,47.3,30.03,NNW,342,3.0,4.0,88,0.00,,,0.00,meteohub,2013-05-04 13:04:00,
2013-05-04 08:09:00,51.1,47.3,30.03,NNW,342,4.0,4.0,87,0.00,,,0.00,meteohub,2013-05-04 13:09:00,
2013-05-04 08:14:00,51.4,47.1,30.03,NNW,342,1.0,6.0,85,0.00,,,0.00,meteohub,2013-05-04 13:14:00,
2013-05-04 08:19:00,52.0,47.3,30.03,NNW,342,0.0,6.0,84,0.00,,,0.00,meteohub,2013-05-04 13:19:00,
2013-05-04 08:24:00,52.3,47.7,30.03,West,278,3.0,6.0,84,0.00,,,0.00,meteohub,2013-05-04 13:24:00,
2013-05-04 08:29:00,52.3,47.7,30.03,South,182,3.0,6.0,84,0.00,,,0.00,meteohub,2013-05-04 13:29:00,
2013-05-04 08:34:00,52.5,47.8,30.03,SSW,209,5.0,6.0,84,0.00,,,0.00,meteohub,2013-05-04 13:34:00,
2013-05-04 08:39:00,52.5,48.2,30.03,South,178,3.0,7.0,85,0.00,,,0.00,meteohub,2013-05-04 13:39:00,
2013-05-04 08:44:00,52.9,48.2,30.03,South,171,5.0,7.0,84,0.00,,,0.00,meteohub,2013-05-04 13:44:00,
2013-05-04 08:49:00,53.1,48.0,30.03,South,170,5.0,7.0,83,0.00,,,0.00,meteohub,2013-05-04 13:49:00,
2013-05-04 08:54:00,53.2,48.6,30.03,South,170,1.0,6.0,84,0.00,,,0.00,meteohub,2013-05-04 13:54:00,
2013-05-04 08:59:00,53.4,49.1,30.02,South,173,2.0,6.0,85,0.00,,,0.00,meteohub,2013-05-04 13:59:00,
2013-05-04 09:04:00,53.6,48.9,30.03,South,173,3.0,6.0,84,0.00,,,0.00,meteohub,2013-05-04 14:04:00,
2013-05-04 09:09:00,54.0,49.6,30.03,South,174,4.0,6.0,85,0.00,,,0.00,meteohub,2013-05-04 14:09:00,
2013-05-04 09:14:00,54.3,49.3,30.02,South,174,0.0,5.0,83,0.00,,,0.00,meteohub,2013-05-04 14:14:00,
2013-05-04 09:19:00,54.7,49.6,30.03,WSW,237,4.0,5.0,83,0.00,,,0.00,meteohub,2013-05-04 14:19:00,
2013-05-04 09:24:00,54.9,49.1,30.03,SW,225,0.0,5.0,81,0.00,,,0.00,meteohub,2013-05-04 14:24:00,
2013-05-04 09:29:00,55.0,49.6,30.02,SW,225,1.0,5.0,82,0.00,,,0.00,meteohub,2013-05-04 14:29:00,
2013-05-04 09:34:00,55.4,50.0,30.02,SW,225,0.0,5.0,82,0.00,,,0.00,meteohub,2013-05-04 14:34:00,
2013-05-04 09:39:00,55.9,49.8,30.02,SW,227,1.0,5.0,80,0.00,,,0.00,meteohub,2013-05-04 14:39:00,
2013-05-04 09:44:00,56.5,49.6,30.02,SW,227,0.0,5.0,78,0.00,,,0.00,meteohub,2013-05-04 14:44:00,
2013-05-04 09:49:00,56.7,49.8,30.03,SW,227,1.0,5.0,78,0.00,,,0.00,meteohub,2013-05-04 14:49:00,
2013-05-04 09:54:00,57.0,48.7,30.03,SW,227,2.0,5.0,74,0.00,,,0.00,meteohub,2013-05-04 14:54:00,
2013-05-04 09:59:00,57.4,49.1,30.02,SW,227,2.0,6.0,74,0.00,,,0.00,meteohub,2013-05-04 14:59:00,
2013-05-04 10:04:00,57.6,48.2,30.02,SSW,207,4.0,6.0,71,0.00,,,0.00,meteohub,2013-05-04 15:04:00,
2013-05-04 10:09:00,58.1,48.4,30.03,WSW,248,3.0,8.0,70,0.00,,,0.00,meteohub,2013-05-04 15:09:00,
2013-05-04 10:14:00,58.5,49.1,30.03,WSW,248,0.0,8.0,71,0.00,,,0.00,meteohub,2013-05-04 15:14:00,
2013-05-04 10:19:00,59.4,49.1,30.03,WSW,248,3.0,8.0,69,0.00,,,0.00,meteohub,2013-05-04 15:19:00,
2013-05-04 10:24:00,59.7,49.1,30.02,SSW,192,4.0,6.0,68,0.00,,,0.00,meteohub,2013-05-04 15:24:00,
2013-05-04 10:29:00,60.1,48.2,30.02,WSW,255,4.0,6.0,65,0.00,,,0.00,meteohub,2013-05-04 15:29:00,
2013-05-04 10:34:00,60.4,47.8,30.02,WSW,254,4.0,7.0,63,0.00,,,0.00,meteohub,2013-05-04 15:34:00,
2013-05-04 10:39:00,61.0,48.7,30.02,West,271,4.0,12.0,64,0.00,,,0.00,meteohub,2013-05-04 15:39:00,
2013-05-04 10:44:00,61.3,46.0,30.02,West,261,4.0,12.0,57,0.00,,,0.00,meteohub,2013-05-04 15:44:00,
2013-05-04 10:49:00,61.3,46.0,30.02,West,279,6.0,12.0,57,0.00,,,0.00,meteohub,2013-05-04 15:49:00,
2013-05-04 10:54:00,62.2,48.2,30.02,WSW,250,4.0,10.0,60,0.00,,,0.00,meteohub,2013-05-04 15:54:00,
2013-05-04 10:59:00,62.4,44.6,30.02,WSW,246,1.0,10.0,52,0.00,,,0.00,meteohub,2013-05-04 15:59:00,
2013-05-04 11:04:00,63.1,44.8,30.02,WSW,240,4.0,10.0,51,0.00,,,0.00,meteohub,2013-05-04 16:04:00,
2013-05-04 11:09:00,63.0,45.1,30.02,WSW,257,8.0,10.0,52,0.00,,,0.00,meteohub,2013-05-04 16:09:00,
2013-05-04 11:14:00,63.1,44.2,30.02,WNW,292,7.0,10.0,50,0.00,,,0.00,meteohub,2013-05-04 16:14:00,
2013-05-04 11:19:00,63.3,43.9,30.02,West,280,7.0,10.0,49,0.00,,,0.00,meteohub,2013-05-04 16:19:00,
2013-05-04 11:24:00,63.7,42.4,30.02,WNW,284,6.0,10.0,46,0.00,,,0.00,meteohub,2013-05-04 16:24:00,
2013-05-04 11:29:00,63.7,43.2,30.02,SW,235,3.0,10.0,47,0.00,,,0.00,meteohub,2013-05-04 16:29:00,
2013-05-04 11:34:00,63.9,43.7,30.02,WSW,248,2.0,11.0,48,0.00,,,0.00,meteohub,2013-05-04 16:34:00,
2013-05-04 11:39:00,64.2,46.2,30.02,WSW,243,2.0,11.0,52,0.00,,,0.00,meteohub,2013-05-04 16:39:00,
2013-05-04 11:44:00,64.2,42.4,30.01,WSW,255,4.0,11.0,45,0.00,,,0.00,meteohub,2013-05-04 16:44:00,
2013-05-04 11:49:00,64.8,42.3,30.01,NW,309,8.0,13.0,44,0.00,,,0.00,meteohub,2013-05-04 16:49:00,
2013-05-04 11:54:00,64.9,40.1,30.01,WNW,285,7.0,13.0,40,0.00,,,0.00,meteohub,2013-05-04 16:54:00,
2013-05-04 11:59:00,65.1,42.6,30.01,West,267,8.0,13.0,44,0.00,,,0.00,meteohub,2013-05-04 16:59:00,
2013-05-04 12:04:00,65.1,43.9,30.00,West,269,6.0,13.0,46,0.00,,,0.00,meteohub,2013-05-04 17:04:00,
2013-05-04 12:09:00,65.1,40.8,30.00,WNW,282,9.0,11.0,41,0.00,,,0.00,meteohub,2013-05-04 17:09:00,
2013-05-04 12:14:00,64.9,40.6,30.00,NW,309,4.0,12.0,41,0.00,,,0.00,meteohub,2013-05-04 17:14:00,
2013-05-04 12:19:00,65.1,42.1,30.00,WSW,258,10.0,12.0,43,0.00,,,0.00,meteohub,2013-05-04 17:19:00,
2013-05-04 12:24:00,65.5,43.0,30.00,WNW,286,7.0,13.0,44,0.00,,,0.00,meteohub,2013-05-04 17:24:00,
2013-05-04 12:30:00,65.5,42.4,29.99,WNW,289,2.0,14.0,43,0.00,,,0.00,meteohub,2013-05-04 17:30:00,
2013-05-04 12:35:00,65.8,42.8,29.99,WNW,294,5.0,14.0,43,0.00,,,0.00,meteohub,2013-05-04 17:35:00,
2013-05-04 12:40:00,66.2,43.0,29.99,WSW,243,3.0,11.0,43,0.00,,,0.00,meteohub,2013-05-04 17:40:00,
2013-05-04 12:45:00,66.6,44.1,29.99,WNW,291,8.0,14.0,44,0.00,,,0.00,meteohub,2013-05-04 17:45:00,
2013-05-04 12:50:00,66.6,42.1,29.99,West,267,5.0,14.0,41,0.00,,,0.00,meteohub,2013-05-04 17:50:00,
2013-05-04 12:55:00,66.4,41.9,29.98,WNW,284,5.0,14.0,41,0.00,,,0.00,meteohub,2013-05-04 17:55:00,
2013-05-04 13:00:00,67.1,41.9,29.98,WSW,255,6.0,11.0,40,0.00,,,0.00,meteohub,2013-05-04 18:00:00,
2013-05-04 13:05:00,66.9,39.7,29.98,West,277,6.0,12.0,37,0.00,,,0.00,meteohub,2013-05-04 18:05:00,
2013-05-04 13:10:00,66.9,42.4,29.98,SW,227,9.0,12.0,41,0.00,,,0.00,meteohub,2013-05-04 18:10:00,
2013-05-04 13:15:00,67.3,41.5,29.97,WSW,252,4.0,12.0,39,0.00,,,0.00,meteohub,2013-05-04 18:15:00,
2013-05-04 13:20:00,67.6,41.2,29.97,SW,222,1.0,9.0,38,0.00,,,0.00,meteohub,2013-05-04 18:20:00,
2013-05-04 13:25:00,67.5,41.7,29.97,SW,231,2.0,9.0,39,0.00,,,0.00,meteohub,2013-05-04 18:25:00,
2013-05-04 13:30:00,68.2,43.0,29.96,WNW,287,7.0,8.0,40,0.00,,,0.00,meteohub,2013-05-04 18:30:00,
2013-05-04 13:35:00,68.7,44.1,29.96,WNW,283,7.0,8.0,41,0.00,,,0.00,meteohub,2013-05-04 18:35:00,
2013-05-04 13:40:00,68.2,42.3,29.96,WSW,244,6.0,11.0,39,0.00,,,0.00,meteohub,2013-05-04 18:40:00,
2013-05-04 13:45:00,68.4,41.0,29.96,NW,305,6.0,11.0,37,0.00,,,0.00,meteohub,2013-05-04 18:45:00,
2013-05-04 13:50:00,68.9,42.3,29.96,WNW,288,8.0,13.0,38,0.00,,,0.00,meteohub,2013-05-04 18:50:00,
2013-05-04 13:55:00,68.9,44.2,29.95,West,273,5.0,13.0,41,0.00,,,0.00,meteohub,2013-05-04 18:55:00,
2013-05-04 14:00:00,69.1,41.7,29.96,WNW,285,6.0,12.0,37,0.00,,,0.00,meteohub,2013-05-04 19:00:00,
2013-05-04 14:05:00,69.1,41.0,29.95,WNW,284,4.0,12.0,36,0.00,,,0.00,meteohub,2013-05-04 19:05:00,
2013-05-04 14:10:00,69.3,40.5,29.95,SSW,211,7.0,15.0,35,0.00,,,0.00,meteohub,2013-05-04 19:10:00,
2013-05-04 14:15:00,69.1,40.3,29.94,South,173,2.0,15.0,35,0.00,,,0.00,meteohub,2013-05-04 19:15:00,
2013-05-04 14:20:00,69.6,42.8,29.94,WSW,254,3.0,15.0,38,0.00,,,0.00,meteohub,2013-05-04 19:20:00,
2013-05-04 14:25:00,70.0,41.7,29.94,WSW,253,9.0,11.0,36,0.00,,,0.00,meteohub,2013-05-04 19:25:00,
2013-05-04 14:30:00,70.0,41.0,29.94,WSW,257,7.0,12.0,35,0.00,,,0.00,meteohub,2013-05-04 19:30:00,
2013-05-04 14:35:00,70.2,41.2,29.94,WNW,288,8.0,14.0,35,0.00,,,0.00,meteohub,2013-05-04 19:35:00,
2013-05-04 14:40:00,69.6,39.2,29.94,WSW,237,8.0,15.0,33,0.00,,,0.00,meteohub,2013-05-04 19:40:00,
2013-05-04 14:45:00,70.0,41.7,29.93,SW,214,7.0,17.0,36,0.00,,,0.00,meteohub,2013-05-04 19:45:00,
2013-05-04 14:50:00,70.3,39.0,29.93,West,259,0.0,17.0,32,0.00,,,0.00,meteohub,2013-05-04 19:50:00,
2013-05-04 14:55:00,70.9,42.6,29.92,WNW,287,6.0,13.0,36,0.00,,,0.00,meteohub,2013-05-04 19:55:00,
2013-05-04 15:00:00,71.2,42.3,29.92,SW,219,11.0,11.0,35,0.00,,,0.00,meteohub,2013-05-04 20:00:00,
2013-05-04 15:05:00,71.1,40.5,29.92,SW,233,7.0,13.0,33,0.00,,,0.00,meteohub,2013-05-04 20:05:00,
2013-05-04 15:10:00,71.1,41.4,29.91,WSW,240,2.0,13.0,34,0.00,,,0.00,meteohub,2013-05-04 20:10:00,
2013-05-04 15:15:00,71.2,41.4,29.91,West,259,4.0,13.0,34,0.00,,,0.00,meteohub,2013-05-04 20:15:00,
2013-05-04 15:20:00,71.1,39.7,29.91,SSW,211,7.0,13.0,32,0.00,,,0.00,meteohub,2013-05-04 20:20:00,
2013-05-04 15:25:00,71.2,41.4,29.91,West,266,2.0,12.0,34,0.00,,,0.00,meteohub,2013-05-04 20:25:00,
2013-05-04 15:30:00,71.8,42.6,29.90,West,266,8.0,12.0,35,0.00,,,0.00,meteohub,2013-05-04 20:30:00,
2013-05-04 15:35:00,71.4,41.5,29.90,WSW,254,6.0,18.0,34,0.00,,,0.00,meteohub,2013-05-04 20:35:00,
2013-05-04 15:40:00,71.4,42.3,29.90,West,261,7.0,18.0,35,0.00,,,0.00,meteohub,2013-05-04 20:40:00,
2013-05-04 15:45:00,71.8,43.3,29.89,WSW,247,2.0,18.0,36,0.00,,,0.00,meteohub,2013-05-04 20:45:00,
2013-05-04 15:50:00,72.1,42.3,29.89,WNW,286,7.0,17.0,34,0.00,,,0.00,meteohub,2013-05-04 20:50:00,
2013-05-04 15:55:00,72.0,42.1,29.89,WSW,242,8.0,17.0,34,0.00,,,0.00,meteohub,2013-05-04 20:55:00,
2013-05-04 16:00:00,72.0,42.1,29.89,SW,228,5.0,14.0,34,0.00,,,0.00,meteohub,2013-05-04 21:00:00,
2013-05-04 16:05:00,72.1,42.3,29.88,SSW,196,8.0,14.0,34,0.00,,,0.00,meteohub,2013-05-04 21:05:00,
2013-05-04 16:10:00,71.8,41.9,29.89,SW,229,6.0,14.0,34,0.00,,,0.00,meteohub,2013-05-04 21:10:00,
2013-05-04 16:15:00,72.0,42.1,29.88,SW,221,9.0,14.0,34,0.00,,,0.00,meteohub,2013-05-04 21:15:00,
2013-05-04 16:20:00,71.4,41.5,29.88,WSW,245,9.0,15.0,34,0.00,,,0.00,meteohub,2013-05-04 21:20:00,
2013-05-04 16:25:00,71.4,41.5,29.88,SSW,205,3.0,17.0,34,0.00,,,0.00,meteohub,2013-05-04 21:25:00,
2013-05-04 16:30:00,71.6,41.0,29.88,SSW,207,7.0,17.0,33,0.00,,,0.00,meteohub,2013-05-04 21:30:00,
2013-05-04 16:35:00,71.4,41.5,29.88,South,190,4.0,16.0,34,0.00,,,0.00,meteohub,2013-05-04 21:35:00,
2013-05-04 16:40:00,71.8,43.3,29.88,SSW,210,7.0,17.0,36,0.00,,,0.00,meteohub,2013-05-04 21:40:00,
2013-05-04 16:45:00,72.0,43.5,29.88,WSW,246,9.0,17.0,36,0.00,,,0.00,meteohub,2013-05-04 21:45:00,
2013-05-04 16:50:00,72.3,43.2,29.88,WSW,238,5.0,17.0,35,0.00,,,0.00,meteohub,2013-05-04 21:50:00,
2013-05-04 16:55:00,72.3,43.2,29.88,South,188,4.0,16.0,35,0.00,,,0.00,meteohub,2013-05-04 21:55:00,
2013-05-04 17:00:00,72.1,43.0,29.88,SW,225,7.0,16.0,35,0.00,,,0.00,meteohub,2013-05-04 22:00:00,
2013-05-04 17:05:00,72.1,43.0,29.88,South,186,7.0,18.0,35,0.00,,,0.00,meteohub,2013-05-04 22:05:00,
2013-05-04 17:10:00,72.0,43.5,29.88,SW,219,9.0,18.0,36,0.00,,,0.00,meteohub,2013-05-04 22:10:00,
2013-05-04 17:15:00,72.3,43.9,29.88,SW,218,9.0,18.0,36,0.00,,,0.00,meteohub,2013-05-04 22:15:00,
2013-05-04 17:20:00,72.1,42.3,29.88,SW,223,10.0,15.0,34,0.00,,,0.00,meteohub,2013-05-04 22:20:00,
2013-05-04 17:25:00,72.1,43.0,29.87,SSW,196,10.0,16.0,35,0.00,,,0.00,meteohub,2013-05-04 22:25:00,
2013-05-04 17:30:00,72.1,42.3,29.87,WSW,246,6.0,19.0,34,0.00,,,0.00,meteohub,2013-05-04 22:30:00,
2013-05-04 17:35:00,72.3,43.9,29.87,SSW,200,2.0,19.0,36,0.00,,,0.00,meteohub,2013-05-04 22:35:00,
2013-05-04 17:41:00,72.3,45.3,29.87,South,175,4.0,20.0,38,0.00,,,0.00,meteohub,2013-05-04 22:41:00,
2013-05-04 17:46:00,72.3,44.6,29.87,SSW,207,7.0,20.0,37,0.00,,,0.00,meteohub,2013-05-04 22:46:00,
2013-05-04 17:51:00,72.1,44.4,29.87,SSW,199,7.0,20.0,37,0.00,,,0.00,meteohub,2013-05-04 22:51:00,
2013-05-04 17:56:00,72.1,45.1,29.87,SW,227,8.0,16.0,38,0.00,,,0.00,meteohub,2013-05-04 22:56:00,
2013-05-04 18:01:00,72.0,45.0,29.87,SSW,195,9.0,16.0,38,0.00,,,0.00,meteohub,2013-05-04 23:01:00,
2013-05-04 18:06:00,72.0,46.4,29.87,SW,232,8.0,16.0,40,0.00,,,0.00,meteohub,2013-05-04 23:06:00,
2013-05-04 18:11:00,72.0,45.7,29.87,SW,229,10.0,16.0,39,0.00,,,0.00,meteohub,2013-05-04 23:11:00,
2013-05-04 18:16:00,71.8,45.5,29.87,SW,214,6.0,16.0,39,0.00,,,0.00,meteohub,2013-05-04 23:16:00,
2013-05-04 18:21:00,71.6,46.0,29.87,SSW,210,8.0,14.0,40,0.00,,,0.00,meteohub,2013-05-04 23:21:00,
2013-05-04 18:26:00,71.4,45.9,29.87,SSW,194,4.0,17.0,40,0.00,,,0.00,meteohub,2013-05-04 23:26:00,
2013-05-04 18:31:00,71.2,46.4,29.87,SSW,209,3.0,17.0,41,0.00,,,0.00,meteohub,2013-05-04 23:31:00,
2013-05-04 18:36:00,71.2,46.9,29.87,SW,215,5.0,17.0,42,0.00,,,0.00,meteohub,2013-05-04 23:36:00,
2013-05-04 18:41:00,70.9,48.6,29.87,SSW,209,7.0,12.0,45,0.00,,,0.00,meteohub,2013-05-04 23:41:00,
2013-05-04 18:46:00,70.3,48.0,29.87,South,186,4.0,12.0,45,0.00,,,0.00,meteohub,2013-05-04 23:46:00,
2013-05-04 18:51:00,70.2,48.9,29.87,SSW,202,3.0,12.0,47,0.00,,,0.00,meteohub,2013-05-04 23:51:00,
2013-05-04 18:56:00,70.0,50.0,29.87,SSW,209,6.0,12.0,49,0.00,,,0.00,meteohub,2013-05-04 23:56:00,
2013-05-04 19:01:00,69.8,49.8,29.87,SSW,206,7.0,10.0,49,0.00,,,0.00,meteohub,2013-05-05 00:01:00,
2013-05-04 19:06:00,69.6,50.2,29.87,WSW,242,14.0,14.0,50,0.00,,,0.00,meteohub,2013-05-05 00:06:00,
2013-05-04 19:11:00,69.4,48.4,29.87,SW,220,4.0,14.0,47,0.00,,,0.00,meteohub,2013-05-05 00:11:00,
2013-05-04 19:16:00,69.4,48.4,29.88,SSW,198,5.0,14.0,47,0.00,,,0.00,meteohub,2013-05-05 00:16:00,
2013-05-04 19:21:00,69.1,48.0,29.88,SW,221,8.0,14.0,47,0.00,,,0.00,meteohub,2013-05-05 00:21:00,
2013-05-04 19:26:00,68.7,47.7,29.88,SW,216,6.0,13.0,47,0.00,,,0.00,meteohub,2013-05-05 00:26:00,
2013-05-04 19:31:00,68.5,48.0,29.88,SSW,196,2.0,13.0,48,0.00,,,0.00,meteohub,2013-05-05 00:31:00,
2013-05-04 19:36:00,68.4,48.4,29.88,SW,224,1.0,13.0,49,0.00,,,0.00,meteohub,2013-05-05 00:36:00,
2013-05-04 19:41:00,67.8,48.0,29.88,SW,223,9.0,12.0,49,0.00,,,0.00,meteohub,2013-05-05 00:41:00,
2013-05-04 19:46:00,67.6,48.4,29.88,SSW,198,3.0,10.0,50,0.00,,,0.00,meteohub,2013-05-05 00:46:00,
2013-05-04 19:51:00,67.5,48.7,29.88,South,185,1.0,10.0,51,0.00,,,0.00,meteohub,2013-05-05 00:51:00,
2013-05-04 19:56:00,67.1,48.4,29.88,South,184,1.0,10.0,51,0.00,,,0.00,meteohub,2013-05-05 00:56:00,
2013-05-04 20:01:00,66.7,48.6,29.88,SSW,196,5.0,8.0,52,0.00,,,0.00,meteohub,2013-05-05 01:01:00,
2013-05-04 20:06:00,66.6,48.9,29.89,South,190,1.0,8.0,53,0.00,,,0.00,meteohub,2013-05-05 01:06:00,
2013-05-04 20:11:00,66.0,48.9,29.89,SSW,198,1.0,8.0,54,0.00,,,0.00,meteohub,2013-05-05 01:11:00,
2013-05-04 20:16:00,65.8,49.3,29.89,South,178,1.0,7.0,55,0.00,,,0.00,meteohub,2013-05-05 01:16:00,
2013-05-04 20:21:00,65.5,49.8,29.89,SSW,197,2.0,6.0,57,0.00,,,0.00,meteohub,2013-05-05 01:21:00,
2013-05-04 20:26:00,64.9,50.2,29.89,South,190,1.0,7.0,59,0.00,,,0.00,meteohub,2013-05-05 01:26:00,
2013-05-04 20:31:00,64.8,50.5,29.90,SSW,193,2.0,8.0,60,0.00,,,0.00,meteohub,2013-05-05 01:31:00,
2013-05-04 20:36:00,64.6,50.9,29.90,South,182,4.0,8.0,61,0.00,,,0.00,meteohub,2013-05-05 01:36:00,
2013-05-04 20:41:00,64.4,50.7,29.90,SSW,198,4.0,8.0,61,0.00,,,0.00,meteohub,2013-05-05 01:41:00,
2013-05-04 20:46:00,64.2,50.5,29.90,South,170,2.0,8.0,61,0.00,,,0.00,meteohub,2013-05-05 01:46:00,
2013-05-04 20:51:00,64.0,50.7,29.90,South,190,5.0,10.0,62,0.00,,,0.00,meteohub,2013-05-05 01:51:00,
2013-05-04 20:56:00,64.0,50.7,29.90,SSW,199,5.0,10.0,62,0.00,,,0.00,meteohub,2013-05-05 01:56:00,
2013-05-04 21:01:00,63.9,51.1,29.90,South,176,2.0,10.0,63,0.00,,,0.00,meteohub,2013-05-05 02:01:00,
2013-05-04 21:06:00,63.9,51.1,29.90,South,186,3.0,10.0,63,0.00,,,0.00,meteohub,2013-05-05 02:06:00,
2013-05-04 21:11:00,63.7,50.9,29.90,SSW,194,2.0,10.0,63,0.00,,,0.00,meteohub,2013-05-05 02:11:00,
2013-05-04 21:16:00,63.5,51.1,29.90,South,172,3.0,10.0,64,0.00,,,0.00,meteohub,2013-05-05 02:16:00,
2013-05-04 21:21:00,63.1,51.3,29.90,South,174,3.0,8.0,65,0.00,,,0.00,meteohub,2013-05-05 02:21:00,
2013-05-04 21:26:00,63.0,51.4,29.90,South,172,1.0,8.0,66,0.00,,,0.00,meteohub,2013-05-05 02:26:00,
2013-05-04 21:31:00,62.8,51.6,29.90,South,178,2.0,5.0,67,0.00,,,0.00,meteohub,2013-05-05 02:31:00,
2013-05-04 21:36:00,62.4,51.8,29.90,South,178,2.0,5.0,68,0.00,,,0.00,meteohub,2013-05-05 02:36:00,
2013-05-04 21:41:00,62.2,51.6,29.90,SSW,200,1.0,4.0,68,0.00,,,0.00,meteohub,2013-05-05 02:41:00,
2013-05-04 21:46:00,62.1,51.8,29.90,SSE,165,1.0,5.0,69,0.00,,,0.00,meteohub,2013-05-05 02:46:00,
2013-05-04 21:51:00,61.9,51.6,29.90,SSE,165,1.0,5.0,69,0.00,,,0.00,meteohub,2013-05-05 02:51:00,
2013-05-04 21:56:00,61.9,52.0,29.91,SSE,166,2.0,5.0,70,0.00,,,0.00,meteohub,2013-05-05 02:56:00,
2013-05-04 22:01:00,61.7,51.8,29.91,South,176,4.0,6.0,70,0.00,,,0.00,meteohub,2013-05-05 03:01:00,
2013-05-04 22:06:00,61.5,52.0,29.91,South,182,3.0,6.0,71,0.00,,,0.00,meteohub,2013-05-05 03:06:00,
2013-05-04 22:11:00,61.3,52.2,29.91,South,190,2.0,6.0,72,0.00,,,0.00,meteohub,2013-05-05 03:11:00,
2013-05-04 22:16:00,61.3,52.2,29.91,SSW,195,2.0,6.0,72,0.00,,,0.00,meteohub,2013-05-05 03:16:00,
2013-05-04 22:21:00,61.2,52.0,29.91,SSW,196,3.0,6.0,72,0.00,,,0.00,meteohub,2013-05-05 03:21:00,
2013-05-04 22:26:00,61.2,52.5,29.91,South,180,3.0,6.0,73,0.00,,,0.00,meteohub,2013-05-05 03:26:00,
2013-05-04 22:31:00,61.2,52.5,29.91,South,173,2.0,6.0,73,0.00,,,0.00,meteohub,2013-05-05 03:31:00,
2013-05-04 22:36:00,61.0,52.3,29.91,South,182,0.0,6.0,73,0.00,,,0.00,meteohub,2013-05-05 03:36:00,
2013-05-04 22:41:00,61.0,52.7,29.91,South,182,1.0,7.0,74,0.00,,,0.00,meteohub,2013-05-05 03:41:00,
2013-05-04 22:46:00,61.0,52.7,29.91,South,187,3.0,7.0,74,0.00,,,0.00,meteohub,2013-05-05 03:46:00,
2013-05-04 22:51:00,61.0,53.1,29.91,South,191,1.0,6.0,75,0.00,,,0.00,meteohub,2013-05-05 03:51:00,
2013-05-04 22:56:00,60.8,52.9,29.91,SSW,196,5.0,6.0,75,0.00,,,0.00,meteohub,2013-05-05 03:56:00,
2013-05-04 23:01:00,60.6,52.7,29.91,SSW,195,3.0,6.0,75,0.00,,,0.00,meteohub,2013-05-05 04:01:00,
2013-05-04 23:06:00,60.6,53.1,29.91,SSW,211,6.0,7.0,76,0.00,,,0.00,meteohub,2013-05-05 04:06:00,
2013-05-04 23:11:00,60.4,53.2,29.91,SSW,205,3.0,7.0,77,0.00,,,0.00,meteohub,2013-05-05 04:11:00,
2013-05-04 23:16:00,60.4,53.2,29.91,South,179,3.0,7.0,77,0.00,,,0.00,meteohub,2013-05-05 04:16:00,
2013-05-04 23:21:00,60.4,53.2,29.91,South,183,8.0,9.0,77,0.00,,,0.00,meteohub,2013-05-05 04:21:00,
2013-05-04 23:26:00,60.4,53.6,29.91,SSW,205,8.0,10.0,78,0.00,,,0.00,meteohub,2013-05-05 04:26:00,
2013-05-04 23:31:00,60.3,53.4,29.91,SSW,202,3.0,10.0,78,0.00,,,0.00,meteohub,2013-05-05 04:31:00,
2013-05-04 23:36:00,60.3,53.4,29.90,SSW,192,7.0,10.0,78,0.00,,,0.00,meteohub,2013-05-05 04:36:00,
2013-05-04 23:41:00,60.3,53.8,29.91,SSW,207,6.0,10.0,79,0.00,,,0.00,meteohub,2013-05-05 04:41:00,
2013-05-04 23:46:00,60.1,53.6,29.90,SSW,209,2.0,10.0,79,0.00,,,0.00,meteohub,2013-05-05 04:46:00,
2013-05-04 23:51:00,60.1,54.0,29.90,SW,222,4.0,10.0,80,0.00,,,0.00,meteohub,2013-05-05 04:51:00,
2013-05-04 23:56:00,60.1,54.0,29.90,SSW,213,5.0,9.0,80,0.00,,,0.00,meteohub,2013-05-05 04:56:00,